createdAt,value
2022-08-04T00:00:23.960Z,95692.09
2022-08-04T00:03:25.043Z,95695.13
2022-08-04T00:06:44.454Z,95689.34
2022-08-04T00:09:35.836Z,95693.72
2022-08-04T00:12:29.461Z,95692.63
2022-08-04T00:15:18.164Z,95689.66
2022-08-04T00:18:06.030Z,95691.81
2022-08-04T00:20:56.012Z,95682.78
2022-08-04T00:24:10.549Z,95695.66
2022-08-04T00:26:53.875Z,95691.00
2022-08-04T00:29:40.276Z,95681.97
2022-08-04T00:32:34.479Z,95686.34
2022-08-04T00:35:21.022Z,95692.66
2022-08-04T00:38:08.792Z,95690.19
2022-08-04T00:40:57.977Z,95688.25
2022-08-04T00:44:02.497Z,95689.06
2022-08-04T00:47:00.826Z,95673.75
2022-08-04T00:50:05.636Z,95697.03
2022-08-04T00:53:07.302Z,95702.22
2022-08-04T00:56:12.283Z,95690.75
2022-08-04T00:59:13.996Z,95688.81
2022-08-04T01:02:07.142Z,95677.59
2022-08-04T01:04:56.114Z,95678.41
2022-08-04T01:08:13.508Z,95693.16
2022-08-04T01:11:57.008Z,95699.69
2022-08-04T01:15:10.641Z,95689.03
2022-08-04T01:18:06.474Z,95699.16
2022-08-04T01:21:02.887Z,95668.44
2022-08-04T01:24:16.446Z,95695.28
2022-08-04T01:27:14.294Z,95679.97
2022-08-04T01:30:00.306Z,95682.44
2022-08-04T01:32:54.215Z,95654.22
2022-08-04T01:35:49.344Z,95682.69
2022-08-04T01:38:37.376Z,95667.34
2022-08-04T01:41:32.580Z,95686.53
2022-08-04T01:44:19.650Z,95684.59
2022-08-04T01:47:07.390Z,95668.72
2022-08-04T01:49:55.058Z,95686.25
2022-08-04T01:52:45.523Z,95683.75
2022-08-04T01:55:54.236Z,95688.66
2022-08-04T01:58:41.846Z,95662.97
2022-08-04T02:01:28.042Z,95679.00
2022-08-04T02:04:23.439Z,95676.00
2022-08-04T02:07:33.834Z,95678.78
2022-08-04T02:10:41.879Z,95682.31
2022-08-04T02:13:40.142Z,95665.59
2022-08-04T02:16:52.249Z,95692.38
2022-08-04T02:20:09.189Z,95682.22
2022-08-04T02:22:59.178Z,95687.53
2022-08-04T02:25:58.571Z,95689.91
2022-08-04T02:28:55.391Z,95680.38
2022-08-04T02:32:00.614Z,95688.34
2022-08-04T02:34:55.356Z,95686.94
2022-08-04T02:37:48.213Z,95686.38
2022-08-04T02:40:34.774Z,95682.56
2022-08-04T02:43:50.138Z,95688.59
2022-08-04T02:46:28.257Z,95688.56
2022-08-04T02:49:15.134Z,95688.00
2022-08-04T02:52:01.601Z,95680.34
2022-08-04T02:54:51.701Z,95686.88
2022-08-04T02:57:38.159Z,95669.13
2022-08-04T03:00:24.412Z,95684.13
2022-08-04T03:03:21.662Z,95687.44
2022-08-04T03:06:11.485Z,95693.16
2022-08-04T03:09:16.852Z,95696.66
2022-08-04T03:12:13.383Z,95692.00
2022-08-04T03:15:27.637Z,95691.94
2022-08-04T03:18:22.587Z,95678.84
2022-08-04T03:21:14.770Z,95694.16
2022-08-04T03:24:25.232Z,95674.16
2022-08-04T03:27:16.385Z,95684.00
2022-08-04T03:30:14.472Z,95690.81
2022-08-04T03:33:20.401Z,95696.00
2022-08-04T03:36:31.853Z,95692.13
2022-08-04T03:39:36.599Z,95693.81
2022-08-04T03:42:22.429Z,95698.72
2022-08-04T03:45:24.476Z,95692.63
2022-08-04T03:48:19.391Z,95698.97
2022-08-04T03:51:36.526Z,95687.69
2022-08-04T03:54:44.734Z,95691.81
2022-08-04T03:57:42.565Z,95678.66
2022-08-04T04:00:40.970Z,95694.78
2022-08-04T04:03:45.829Z,95698.38
2022-08-04T04:06:54.217Z,95703.25
2022-08-04T04:10:15.650Z,95705.94
2022-08-04T04:13:15.930Z,95694.72
2022-08-04T04:16:13.988Z,95699.44
2022-08-04T04:19:37.770Z,95704.03
2022-08-04T04:22:42.174Z,95707.34
2022-08-04T04:26:21.921Z,95705.63
2022-08-04T04:29:19.498Z,95699.66
2022-08-04T04:32:29.001Z,95701.56
2022-08-04T04:35:54.273Z,95702.66
2022-08-04T04:39:11.425Z,95699.94
2022-08-04T04:42:22.264Z,95707.03
2022-08-04T04:45:25.154Z,95708.88
2022-08-04T04:48:29.792Z,95718.63
2022-08-04T04:51:24.327Z,95710.50
2022-08-04T04:54:16.360Z,95715.22
2022-08-04T04:57:08.191Z,95698.53
2022-08-04T04:59:57.410Z,95705.13
2022-08-04T05:03:17.682Z,95708.63
2022-08-04T05:06:30.548Z,95704.00
2022-08-04T05:09:35.390Z,95718.69
2022-08-04T05:14:32.460Z,95711.72
2022-08-04T05:15:36.293Z,95723.53
2022-08-04T05:18:27.497Z,95691.00
2022-08-04T05:21:34.159Z,95696.50
2022-08-04T05:24:22.509Z,95712.16
2022-08-04T05:27:30.032Z,95724.44
2022-08-04T05:30:15.890Z,95714.41
2022-08-04T05:33:09.903Z,95716.91
2022-08-04T05:36:18.590Z,95731.63
2022-08-04T05:39:08.010Z,95722.94
2022-08-04T05:41:58.547Z,95724.59
2022-08-04T05:44:51.399Z,95728.44
2022-08-04T05:47:37.925Z,95713.75
2022-08-04T05:50:24.865Z,95712.13
2022-08-04T05:53:11.630Z,95725.25
2022-08-04T05:55:59.986Z,95724.72
2022-08-04T05:58:46.577Z,95717.13
2022-08-04T06:01:33.513Z,95724.72
2022-08-04T06:04:41.471Z,95729.69
2022-08-04T06:07:27.910Z,95727.47
2022-08-04T06:10:14.100Z,95724.81
2022-08-04T06:13:03.842Z,95724.53
2022-08-04T06:15:51.035Z,95722.91
2022-08-04T06:20:03.830Z,95729.78
2022-08-04T06:21:46.144Z,95692.38
2022-08-04T06:24:33.300Z,95725.06
2022-08-04T06:27:20.382Z,95722.97
2022-08-04T06:30:14.001Z,95717.22
2022-08-04T06:33:13.437Z,95707.41
2022-08-04T06:36:01.887Z,95709.63
2022-08-04T06:38:52.095Z,95715.91
2022-08-04T06:42:17.509Z,95712.91
2022-08-04T06:44:59.162Z,95721.13
2022-08-04T06:47:46.093Z,95713.47
2022-08-04T06:51:30.390Z,95722.25
2022-08-04T06:53:40.333Z,95701.41
2022-08-04T06:56:26.404Z,95719.25
2022-08-04T07:06:43.906Z,95710.94
2022-08-04T07:09:31.261Z,95717.00
2022-08-04T07:12:21.557Z,95718.09
2022-08-04T07:15:08.561Z,95708.00
2022-08-04T07:18:02.006Z,95708.03
2022-08-04T07:20:49.003Z,95709.38
2022-08-04T07:23:35.355Z,95708.25
2022-08-04T07:26:27.353Z,95704.97
2022-08-04T07:29:15.663Z,95706.06
2022-08-04T07:32:05.229Z,95700.50
2022-08-04T07:34:51.772Z,95694.75
2022-08-04T07:37:39.361Z,95709.41
2022-08-04T07:40:26.390Z,95696.16
2022-08-04T07:43:12.417Z,95702.63
2022-08-04T07:45:59.024Z,95702.84
2022-08-04T07:48:45.578Z,95699.47
2022-08-04T07:51:32.326Z,95684.94
2022-08-04T07:54:18.620Z,95695.63
2022-08-04T07:57:04.596Z,95712.03
2022-08-04T07:59:50.635Z,95701.81
2022-08-04T08:02:37.229Z,95701.34
2022-08-04T08:05:23.424Z,95699.34
2022-08-04T08:08:10.959Z,95710.22
2022-08-04T08:10:57.284Z,95689.31
2022-08-04T08:13:45.024Z,95702.22
2022-08-04T08:16:33.706Z,95710.06
2022-08-04T08:19:20.347Z,95699.78
2022-08-04T08:22:06.634Z,95683.31
2022-08-04T08:24:52.988Z,95700.72
2022-08-04T08:27:39.162Z,95706.06
2022-08-04T08:30:41.879Z,95706.38
2022-08-04T08:33:28.350Z,95704.53
2022-08-04T08:36:35.267Z,95686.69
2022-08-04T08:39:29.443Z,95709.88
2022-08-04T08:42:23.080Z,95712.31
2022-08-04T08:45:30.277Z,95678.19
2022-08-04T08:48:37.520Z,95709.00
2022-08-04T08:51:36.160Z,95705.06
2022-08-04T08:54:45.008Z,95702.47
2022-08-04T08:57:44.004Z,95696.56
2022-08-04T09:01:06.060Z,95701.66
2022-08-04T09:04:23.835Z,95685.50
2022-08-04T09:07:19.939Z,95697.22
2022-08-04T09:10:40.177Z,95702.28
2022-08-04T09:13:51.146Z,95694.19
2022-08-04T09:16:43.332Z,95686.50
2022-08-04T09:19:38.066Z,95672.75
2022-08-04T09:22:45.616Z,95681.84
2022-08-04T09:25:41.493Z,95680.25
2022-08-04T09:28:52.758Z,95661.72
2022-08-04T09:32:06.318Z,95683.00
2022-08-04T09:35:16.256Z,95669.72
2022-08-04T09:38:28.838Z,95686.69
2022-08-04T09:41:52.846Z,95678.81
2022-08-04T09:45:04.909Z,95660.94
2022-08-04T09:48:21.901Z,95676.28
2022-08-04T09:51:17.337Z,95685.38
2022-08-04T09:54:30.588Z,95674.97
2022-08-04T09:57:39.332Z,95665.13
2022-08-04T10:00:40.405Z,95667.84
2022-08-04T10:03:31.840Z,95656.50
2022-08-04T10:06:42.400Z,95667.84
2022-08-04T10:10:06.345Z,95661.47
2022-08-04T10:13:08.688Z,95664.81
2022-08-04T10:16:12.119Z,95669.44
2022-08-04T10:19:31.724Z,95662.69
2022-08-04T10:22:44.670Z,95659.41
2022-08-04T10:26:06.837Z,95650.53
2022-08-04T10:29:01.269Z,95656.88
2022-08-04T10:32:03.703Z,95643.38
2022-08-04T10:35:05.135Z,95633.16
2022-08-04T10:38:18.337Z,95651.28
2022-08-04T10:41:21.991Z,95645.22
2022-08-04T10:44:42.236Z,95638.47
2022-08-04T10:47:35.494Z,95646.06
2022-08-04T10:50:24.817Z,95640.53
2022-08-04T10:53:14.436Z,95635.41
2022-08-04T10:56:09.829Z,95637.47
2022-08-04T10:59:01.511Z,95640.56
2022-08-04T11:02:01.518Z,95630.16
2022-08-04T11:05:00.136Z,95637.56
2022-08-04T11:07:50.884Z,95632.81
2022-08-04T11:10:46.239Z,95616.31
2022-08-04T11:52:06.969Z,95589.28
2022-08-04T11:54:54.920Z,95578.34
2022-08-04T11:57:41.710Z,95569.53
2022-08-04T12:00:30.292Z,95586.00
2022-08-04T12:03:16.102Z,95579.38
2022-08-04T12:06:11.310Z,95585.03
2022-08-04T12:09:03.916Z,95558.13
2022-08-04T12:12:23.734Z,95567.31
2022-08-04T12:15:24.234Z,95570.50
2022-08-04T12:18:40.031Z,95565.50
2022-08-04T12:21:32.059Z,95551.09
2022-08-04T12:24:22.527Z,95560.38
2022-08-04T12:27:31.875Z,95569.69
2022-08-04T12:30:57.556Z,95566.44
2022-08-04T12:34:05.349Z,95568.75
2022-08-04T12:37:03.609Z,95566.19
2022-08-04T12:40:28.750Z,95557.88
2022-08-04T12:43:09.278Z,95555.94
2022-08-04T12:46:04.085Z,95562.28
2022-08-04T12:48:50.654Z,95547.63
2022-08-04T12:52:07.586Z,95555.13
2022-08-04T12:54:51.417Z,95539.94
2022-08-04T12:57:37.982Z,95551.03
2022-08-04T13:00:33.146Z,95542.41
2022-08-04T13:03:24.444Z,95540.44
2022-08-04T13:06:12.347Z,95539.63
2022-08-04T13:09:26.922Z,95542.22
2022-08-04T13:12:23.060Z,95533.91
2022-08-04T13:15:18.177Z,95529.47
2022-08-04T13:18:14.713Z,95514.66
2022-08-04T13:21:21.200Z,95528.72
2022-08-04T13:24:21.359Z,95517.47
2022-08-04T13:27:17.574Z,95518.63
2022-08-04T13:30:04.219Z,95510.28
2022-08-04T13:32:58.117Z,95517.28
2022-08-04T13:35:55.324Z,95509.53
2022-08-04T13:38:50.917Z,95496.31
2022-08-04T13:41:40.948Z,95492.31
2022-08-04T13:44:33.120Z,95502.88
2022-08-04T13:47:31.840Z,95496.97
2022-08-04T13:50:20.846Z,95490.94
2022-08-04T13:53:06.581Z,95486.47
2022-08-04T13:56:00.477Z,95503.59
2022-08-04T13:58:48.051Z,95493.78
2022-08-04T14:01:36.291Z,95491.13
2022-08-04T14:04:25.059Z,95482.34
2022-08-04T14:07:18.022Z,95501.44
2022-08-04T14:10:14.475Z,95493.84
2022-08-04T14:13:04.863Z,95492.16
2022-08-04T14:16:02.540Z,95505.50
2022-08-04T14:18:59.957Z,95495.38
2022-08-04T14:21:46.047Z,95494.50
2022-08-04T14:24:32.106Z,95498.59
2022-08-04T14:27:18.305Z,95489.47
2022-08-04T14:30:04.574Z,95474.34
2022-08-04T14:34:00.474Z,95481.19
2022-08-04T14:36:15.763Z,95475.34
2022-08-04T14:39:01.879Z,95489.44
2022-08-04T14:41:49.134Z,95475.78
2022-08-04T14:44:55.896Z,95478.13
2022-08-04T14:47:52.943Z,95475.59
2022-08-04T14:50:44.176Z,95461.16
2022-08-04T14:53:29.938Z,95462.16
2022-08-04T14:56:37.570Z,95470.72
2022-08-04T14:59:22.727Z,95472.25
2022-08-04T15:02:09.351Z,95470.44
2022-08-04T15:04:55.675Z,95472.00
2022-08-04T15:07:41.853Z,95473.88
2022-08-04T15:10:28.152Z,95477.94
2022-08-04T15:13:14.538Z,95472.19
2022-08-04T15:16:06.995Z,95473.03
2022-08-04T15:18:55.061Z,95482.69
2022-08-04T15:21:43.328Z,95472.44
2022-08-04T15:24:29.070Z,95474.31
2022-08-04T15:27:16.126Z,95472.19
2022-08-04T15:30:04.785Z,95471.44
2022-08-04T15:32:53.617Z,95476.94
2022-08-04T15:35:40.921Z,95466.31
2022-08-04T15:38:38.484Z,95469.66
2022-08-04T15:41:32.145Z,95474.91
2022-08-04T15:44:50.495Z,95466.22
2022-08-04T15:47:36.587Z,95468.66
2022-08-04T15:50:27.934Z,95468.00
2022-08-04T15:53:14.395Z,95467.69
2022-08-04T15:56:27.787Z,95471.72
2022-08-04T15:59:14.278Z,95459.34
2022-08-04T16:02:32.288Z,95453.38
2022-08-04T16:05:21.485Z,95454.38
2022-08-04T16:08:12.672Z,95466.56
2022-08-04T16:10:58.992Z,95471.69
2022-08-04T16:14:06.621Z,95463.56
2022-08-04T16:16:52.531Z,95456.41
2022-08-04T16:19:41.466Z,95467.31
2022-08-04T16:22:39.630Z,95460.38
2022-08-04T16:25:48.279Z,95451.28
2022-08-04T16:28:40.935Z,95455.34
2022-08-04T16:31:26.844Z,95454.72
2022-08-04T16:34:49.044Z,95462.13
2022-08-04T16:37:20.570Z,95463.69
2022-08-04T16:40:33.278Z,95471.97
2022-08-04T16:43:22.995Z,95460.63
2022-08-04T16:46:18.417Z,95446.56
2022-08-04T16:49:07.741Z,95459.19
2022-08-04T16:51:55.038Z,95458.44
2022-08-04T16:54:41.591Z,95466.25
2022-08-04T16:57:27.899Z,95466.25
2022-08-04T17:00:14.751Z,95472.06
2022-08-04T17:03:05.689Z,95473.78
2022-08-04T17:06:06.502Z,95473.88
2022-08-04T17:08:52.704Z,95472.09
2022-08-04T17:11:38.752Z,95472.63
2022-08-04T17:14:27.674Z,95475.78
2022-08-04T17:17:13.565Z,95467.72
2022-08-04T17:19:59.643Z,95489.34
2022-08-04T17:22:45.579Z,95493.16
2022-08-04T17:25:52.003Z,95476.25
2022-08-04T17:28:47.422Z,95478.88
2022-08-04T17:31:35.865Z,95501.84
2022-08-04T17:34:22.040Z,95503.13
2022-08-04T17:37:38.462Z,95495.97
2022-08-04T17:44:04.223Z,95504.44
2022-08-04T17:46:52.995Z,95499.56
2022-08-04T17:49:52.948Z,95484.59
2022-08-04T17:52:44.484Z,95500.69
2022-08-04T17:55:47.025Z,95531.91
2022-08-04T17:58:33.468Z,95524.69
2022-08-04T18:01:26.228Z,95524.59
2022-08-04T18:04:34.674Z,95511.97
2022-08-04T18:08:34.748Z,95516.81
2022-08-04T18:10:51.583Z,95476.56
2022-08-04T18:13:43.362Z,95529.69
2022-08-04T18:16:29.920Z,95530.66
2022-08-04T18:19:18.968Z,95546.72
2022-08-04T18:22:09.062Z,95532.03
2022-08-04T18:25:04.156Z,95539.03
2022-08-04T18:27:55.570Z,95545.31
2022-08-04T18:33:59.022Z,95552.56
2022-08-04T18:36:55.431Z,95548.63
2022-08-04T18:40:10.690Z,95549.88
2022-08-04T18:42:50.432Z,95555.53
2022-08-04T18:45:36.702Z,95563.59
2022-08-04T18:48:23.064Z,95561.59
2022-08-04T18:51:24.906Z,95566.91
2022-08-04T18:54:11.702Z,95574.09
2022-08-04T18:57:24.477Z,95568.06
2022-08-04T19:00:05.005Z,95573.09
2022-08-04T19:02:51.438Z,95585.06
2022-08-04T19:05:38.227Z,95578.34
2022-08-04T19:08:33.040Z,95576.84
2022-08-04T19:11:38.639Z,95584.09
2022-08-04T19:14:28.341Z,95595.88
2022-08-04T19:17:14.716Z,95598.53
2022-08-04T19:20:25.551Z,95599.47
2022-08-04T19:24:10.837Z,95589.56
2022-08-04T19:26:36.601Z,95606.91
2022-08-04T19:29:22.722Z,95594.09
2022-08-04T19:32:15.184Z,95618.25
2022-08-04T19:35:01.949Z,95614.31
2022-08-04T19:37:58.258Z,95616.31
2022-08-04T19:40:52.393Z,95604.25
2022-08-04T19:43:43.563Z,95622.34
2022-08-04T19:46:29.997Z,95623.22
2022-08-04T19:50:03.045Z,95619.53
2022-08-04T19:52:33.832Z,95618.03
2022-08-04T19:55:22.762Z,95620.56
2022-08-04T19:58:25.920Z,95617.66
2022-08-04T20:01:31.226Z,95622.47
2022-08-04T20:04:19.589Z,95622.34
2022-08-04T20:07:08.730Z,95632.72
2022-08-04T20:10:04.262Z,95634.72
2022-08-04T20:12:55.586Z,95626.31
2022-08-04T20:15:58.000Z,95631.38
2022-08-04T20:18:55.455Z,95633.63
2022-08-04T20:21:55.090Z,95631.38
2022-08-04T20:24:49.258Z,95642.72
2022-08-04T20:27:51.740Z,95643.25
2022-08-04T20:30:45.768Z,95636.75
2022-08-04T20:33:31.832Z,95629.44
2022-08-04T20:36:21.170Z,95642.38
2022-08-04T20:39:09.850Z,95652.69
2022-08-04T20:41:56.401Z,95639.31
2022-08-04T20:44:46.910Z,95635.06
2022-08-04T20:47:35.361Z,95634.34
2022-08-04T20:50:29.855Z,95641.31
2022-08-04T20:53:17.383Z,95647.66
2022-08-04T20:56:03.578Z,95649.94
2022-08-04T20:58:52.737Z,95631.69
2022-08-04T21:01:39.764Z,95656.91
2022-08-04T21:04:31.722Z,95653.66
2022-08-04T21:07:18.431Z,95641.38
2022-08-04T21:10:05.015Z,95652.59
2022-08-04T21:12:51.829Z,95667.16
2022-08-04T21:15:57.757Z,95651.13
2022-08-04T21:18:45.192Z,95665.72
2022-08-04T21:21:35.592Z,95653.47
2022-08-04T21:24:26.258Z,95665.56
2022-08-04T21:27:13.039Z,95670.78
2022-08-04T21:30:00.002Z,95680.44
2022-08-04T21:32:45.762Z,95667.84
2022-08-04T21:35:38.295Z,95669.50
2022-08-04T21:38:28.210Z,95668.72
2022-08-04T21:41:24.473Z,95670.41
2022-08-04T21:44:12.974Z,95673.50
2022-08-04T21:46:59.055Z,95673.00
2022-08-04T21:49:55.869Z,95675.50
2022-08-04T21:52:43.405Z,95664.34
2022-08-04T21:56:04.798Z,95676.91
2022-08-04T21:58:38.154Z,95675.03
2022-08-04T22:01:50.515Z,95681.09
2022-08-04T22:04:30.995Z,95691.78
2022-08-04T22:07:17.497Z,95666.34
2022-08-04T22:10:09.297Z,95695.13
2022-08-04T22:12:55.814Z,95696.78
2022-08-04T22:16:05.367Z,95680.41
2022-08-04T22:18:50.990Z,95690.25
2022-08-04T22:21:46.541Z,95696.88
2022-08-04T22:24:32.588Z,95684.88
2022-08-04T22:27:36.961Z,95704.88
2022-08-04T22:30:24.113Z,95705.19
2022-08-04T22:33:10.490Z,95680.53
2022-08-04T22:35:57.906Z,95692.59
2022-08-04T22:38:48.628Z,95702.47
2022-08-04T22:41:48.808Z,95700.28
2022-08-04T22:44:43.200Z,95687.16
2022-08-04T22:47:30.430Z,95699.22
2022-08-04T22:50:27.621Z,95697.31
2022-08-04T22:53:18.062Z,95702.78
2022-08-04T22:56:09.665Z,95689.66
2022-08-04T22:58:56.960Z,95694.31
2022-08-04T23:01:59.014Z,95696.25
2022-08-04T23:04:49.954Z,95694.34
2022-08-04T23:07:49.015Z,95679.28
2022-08-04T23:10:36.282Z,95686.69
2022-08-04T23:13:22.630Z,95684.47
2022-08-04T23:16:10.388Z,95682.31
2022-08-04T23:18:56.841Z,95690.50
2022-08-04T23:21:47.264Z,95688.84
2022-08-04T23:24:34.596Z,95667.78
2022-08-04T23:27:20.816Z,95679.28
2022-08-04T23:30:07.647Z,95676.25
2022-08-04T23:32:53.844Z,95663.66
2022-08-04T23:35:39.928Z,95670.22
2022-08-04T23:38:31.376Z,95674.88
2022-08-04T23:41:18.776Z,95675.41
2022-08-04T23:44:06.041Z,95672.66
2022-08-04T23:47:03.282Z,95681.16
2022-08-04T23:49:49.551Z,95660.91
2022-08-04T23:52:35.376Z,95679.22
2022-08-04T23:55:21.460Z,95678.41
2022-08-04T23:58:18.818Z,95677.03
